Time;durP1;ratioP1;P1;durP2;ratioP2;P2;SDS_P1;SDS_P2;PMS_P1;PMS_P2;Temp;Humidity;BMP_temperature;BMP_pressure;BME280_temperature;BME280_humidity;BME280_pressure;Samples;Min_cycle;Max_cycle;Signal;HPM_P1;HPM_P2
2022/12/28 00:01:07;;;;;;;8.90;8.00;;;;;;;8.99;94.33;95868.72;5073142;28;20513;-82
2022/12/28 00:03:33;;;;;;;9.67;8.30;;;;;;;9.00;94.06;95873.84;5072875;28;20842;-81
2022/12/28 00:06:01;;;;;;;9.50;8.50;;;;;;;8.98;93.31;95867.03;5072884;28;20464;-81
2022/12/28 00:08:28;;;;;;;11.63;8.70;;;;;;;9.07;94.25;95881.31;5073177;28;20480;-81
2022/12/28 00:11:01;;;;;;;9.30;7.90;;;;;;;9.10;93.63;95887.19;5072991;28;20447;-81
2022/12/28 00:13:30;;;;;;;11.43;9.60;;;;;;;9.09;92.76;95882.91;5072705;28;20858;-81
2022/12/28 00:15:56;;;;;;;10.00;8.13;;;;;;;9.10;93.61;95883.75;5073006;28;20489;-81
2022/12/28 00:18:23;;;;;;;12.27;9.40;;;;;;;9.13;93.97;95886.16;5072598;28;20444;-81
2022/12/28 00:20:56;;;;;;;13.77;9.00;;;;;;;9.18;93.46;95884.09;5072975;28;20444;-81
2022/12/28 00:23:23;;;;;;;9.60;8.47;;;;;;;9.21;93.49;95887.34;5072562;28;20863;-81
2022/12/28 00:25:50;;;;;;;12.77;9.37;;;;;;;9.20;93.72;95883.03;5072998;28;20523;-81
2022/12/28 00:28:18;;;;;;;9.70;8.70;;;;;;;9.23;93.41;95888.09;5072887;28;20488;-81
2022/12/28 00:30:45;;;;;;;13.97;10.33;;;;;;;9.28;93.85;95893.06;5072735;28;20517;-82
2022/12/28 00:33:12;;;;;;;11.03;9.03;;;;;;;9.31;92.93;95885.84;5072285;28;20855;-81
2022/12/28 00:35:39;;;;;;;11.87;9.40;;;;;;;9.30;92.89;95894.63;5072718;28;20441;-81
2022/12/28 00:38:05;;;;;;;14.30;11.17;;;;;;;9.29;92.51;95892.97;5072428;28;20441;-81
2022/12/28 00:40:32;;;;;;;11.37;9.27;;;;;;;9.27;92.36;95900.06;5072675;28;20506;-81
2022/12/28 00:42:59;;;;;;;11.30;9.90;;;;;;;9.25;92.32;95901.09;5072338;28;20469;-81
2022/12/28 00:45:27;;;;;;;10.90;8.20;;;;;;;9.26;92.56;95903.63;5037158;28;20493;-81
2022/12/28 00:47:54;;;;;;;12.83;10.20;;;;;;;9.23;92.18;95903.78;5072326;28;20484;-81
2022/12/28 00:50:21;;;;;;;13.33;9.23;;;;;;;9.27;92.83;95914.94;5072557;28;20437;-81
2022/12/28 00:52:47;;;;;;;12.53;9.93;;;;;;;9.23;92.87;95914.28;5072575;28;20771;-81
2022/12/28 00:55:14;;;;;;;10.70;9.70;;;;;;;9.20;92.45;95909.22;5072092;28;20452;-81
2022/12/28 00:57:41;;;;;;;9.80;8.63;;;;;;;9.17;93.01;95912.03;5072294;28;20779;-81
2022/12/28 01:00:09;;;;;;;9.83;8.80;;;;;;;9.15;92.44;95911.31;5072089;28;20495;-82
2022/12/28 01:02:37;;;;;;;13.13;8.60;;;;;;;9.17;93.43;95913.81;5037835;28;20989;-81
2022/12/28 01:05:04;;;;;;;15.07;9.50;;;;;;;9.11;93.76;95914.22;5072132;28;20441;-82
2022/12/28 01:07:31;;;;;;;11.33;9.13;;;;;;;9.10;93.80;95917.78;5072519;28;20448;-81
2022/12/28 01:09:57;;;;;;;10.80;9.03;;;;;;;9.11;93.95;95914.22;5072066;28;20445;-81
2022/12/28 01:12:24;;;;;;;10.87;9.47;;;;;;;9.12;93.43;95916.72;5072186;28;20460;-82
2022/12/28 01:14:51;;;;;;;13.17;10.10;;;;;;;9.10;92.84;95907.31;5036738;28;20851;-81
2022/12/28 01:17:18;;;;;;;14.53;11.10;;;;;;;9.08;93.12;95912.63;5072112;28;20448;-81
2022/12/28 01:19:46;;;;;;;14.07;10.70;;;;;;;9.07;93.03;95913.56;5071895;28;20490;-81
2022/12/28 01:22:13;;;;;;;18.50;12.57;;;;;;;9.03;93.77;95906.00;5071837;28;20469;-81
2022/12/28 01:24:40;;;;;;;12.73;11.43;;;;;;;9.00;93.66;95907.88;5071883;28;20455;-81
2022/12/28 01:27:06;;;;;;;13.40;10.93;;;;;;;8.96;94.41;95903.78;5055752;28;20856;-80
2022/12/28 01:29:33;;;;;;;16.93;11.50;;;;;;;8.92;93.88;95901.41;5075702;28;20542;-81
2022/12/28 01:32:00;;;;;;;13.77;11.90;;;;;;;8.88;94.70;95902.56;5075930;28;20459;-81
2022/12/28 01:34:27;;;;;;;17.50;12.17;;;;;;;8.86;93.84;95899.19;5075922;28;20449;-81
2022/12/28 01:36:58;;;;;;;15.20;12.20;;;;;;;8.81;93.87;95903.88;5075910;28;20501;-81
2022/12/28 01:39:25;;;;;;;12.97;11.57;;;;;;;8.79;94.18;95906.59;5075619;28;20452;-81
2022/12/28 01:41:51;;;;;;;14.50;11.47;;;;;;;8.77;94.46;95905.84;5075810;28;20502;-81
2022/12/28 01:44:42;;;;;;;14.70;11.83;;;;;;;8.78;94.16;95896.22;5075381;28;20894;-81
2022/12/28 01:47:13;;;;;;;13.40;11.90;;;;;;;8.74;94.16;95905.19;5076351;28;20425;-81
2022/12/28 01:49:45;;;;;;;17.70;11.20;;;;;;;8.71;94.11;95894.91;5057808;28;20889;-81
2022/12/28 01:52:17;;;;;;;14.73;11.93;;;;;;;8.78;94.60;95896.22;5075957;28;20494;-81
2022/12/28 01:54:48;;;;;;;13.37;11.03;;;;;;;8.76;93.64;95891.06;5073255;28;20538;-82
2022/12/28 01:57:15;;;;;;;12.70;10.90;;;;;;;8.79;93.45;95893.50;5075344;28;20449;-81
2022/12/28 01:59:47;;;;;;;16.47;11.73;;;;;;;8.75;91.86;95891.16;5076625;28;20501;-81
2022/12/28 02:02:15;;;;;;;14.80;11.47;;;;;;;8.69;91.38;95887.16;5076864;28;20846;-80
2022/12/28 02:04:41;;;;;;;16.83;11.50;;;;;;;8.67;91.40;95895.09;5076554;28;20836;-81
2022/12/28 02:07:09;;;;;;;18.63;13.53;;;;;;;8.67;91.90;95883.78;5076004;28;20990;-81
2022/12/28 02:09:40;;;;;;;19.10;14.37;;;;;;;8.60;92.14;95880.69;5075048;28;20484;-80
2022/12/28 02:12:08;;;;;;;18.13;13.20;;;;;;;8.56;92.80;95879.22;5074990;28;21020;-81
2022/12/28 02:14:35;;;;;;;14.73;12.60;;;;;;;8.53;92.68;95876.78;5074837;28;20448;-81
2022/12/28 02:17:02;;;;;;;15.60;12.43;;;;;;;8.55;92.18;95885.38;5074880;28;20448;-81
2022/12/28 02:19:38;;;;;;;16.53;13.33;;;;;;;8.53;91.45;95876.78;5074721;28;20445;-81
2022/12/28 02:22:26;;;;;;;15.03;12.23;;;;;;;8.56;90.46;95881.81;5074776;28;20440;-81
2022/12/28 02:25:16;;;;;;;16.10;11.40;;;;;;;8.54;90.43;95883.69;5074642;28;20930;-81
2022/12/28 02:27:54;;;;;;;15.80;11.73;;;;;;;8.55;90.16;95874.06;5075068;28;20846;-81
2022/12/28 02:30:22;;;;;;;16.40;11.83;;;;;;;8.61;90.06;95878.91;5074866;28;20537;-81
2022/12/28 02:33:01;;;;;;;17.77;12.60;;;;;;;8.55;88.85;95869.69;5074479;28;20840;-81
2022/12/28 02:35:38;;;;;;;14.23;12.20;;;;;;;8.54;89.13;95873.22;5074606;28;21023;-81
2022/12/28 02:38:12;;;;;;;16.63;11.53;;;;;;;8.63;88.72;95867.44;5074142;28;20445;-81
2022/12/28 02:40:43;;;;;;;19.40;13.23;;;;;;;8.71;88.64;95872.22;5074756;28;20522;-81
2022/12/28 02:43:10;;;;;;;15.67;12.30;;;;;;;8.79;87.74;95862.09;5074440;28;21044;-81
2022/12/28 02:51:46;;;;;;;17.17;13.27;;;;;;;8.97;85.69;95875.81;5074503;28;20535;-81
2022/12/28 02:57:32;;;;;;;21.90;14.53;;;;;;;8.92;84.43;95873.47;5012492;28;20486;-82
2022/12/28 03:00:06;;;;;;;18.83;14.13;;;;;;;8.91;84.67;95876.19;5012101;28;20501;-81
2022/12/28 03:02:58;;;;;;;21.03;14.73;;;;;;;8.94;85.53;95881.22;5011988;28;20448;-81
2022/12/28 03:08:26;;;;;;;18.30;13.37;;;;;;;8.88;84.42;95879.00;5012047;28;20423;-81
2022/12/28 03:11:02;;;;;;;17.03;13.27;;;;;;;8.89;84.29;95878.06;5012116;28;20455;-81
2022/12/28 03:13:43;;;;;;;17.30;13.30;;;;;;;8.85;83.68;95881.81;4995404;28;21047;-81
2022/12/28 03:16:15;;;;;;;17.10;13.63;;;;;;;8.87;84.11;95875.53;5011996;28;20452;-81
2022/12/28 03:32:44;;;;;;;20.60;14.77;;;;;;;8.49;84.94;95875.28;5073681;28;20455;-81
2022/12/28 03:35:15;;;;;;;26.80;16.13;;;;;;;8.48;84.71;95878.84;5073234;28;20502;-81
2022/12/28 03:37:50;;;;;;;23.03;14.73;;;;;;;8.53;85.42;95875.94;5073455;28;20513;-81
2022/12/28 03:40:27;;;;;;;18.27;13.93;;;;;;;8.57;84.83;95885.28;5073406;28;20789;-81
2022/12/28 03:45:48;;;;;;;21.37;13.77;;;;;;;8.69;84.68;95880.16;5073254;28;20474;-81
2022/12/28 03:48:16;;;;;;;21.30;14.67;;;;;;;8.77;84.04;95889.31;5072738;28;20499;-81
2022/12/28 03:50:48;;;;;;;22.53;15.17;;;;;;;8.82;83.43;95882.84;5073012;28;20498;-81
2022/12/28 03:53:17;;;;;;;27.10;15.50;;;;;;;8.84;83.81;95872.28;5072933;28;20440;-81
2022/12/28 03:55:44;;;;;;;27.47;15.90;;;;;;;8.84;83.81;95869.66;5073494;28;20544;-81
2022/12/28 03:58:11;;;;;;;19.33;13.10;;;;;;;8.77;83.18;95868.38;5072854;28;20440;-82
2022/12/28 04:00:38;;;;;;;17.63;12.10;;;;;;;8.80;83.16;95876.03;5073335;28;20449;-81
2022/12/28 04:03:04;;;;;;;16.03;12.40;;;;;;;8.85;82.39;95866.09;5072964;28;21047;-80
2022/12/28 04:05:31;;;;;;;14.70;12.87;;;;;;;8.82;82.29;95874.16;5073161;28;21000;-81
2022/12/28 04:07:59;;;;;;;21.60;11.57;;;;;;;8.82;82.22;95868.91;5072961;28;20445;-81
2022/12/28 04:10:26;;;;;;;14.93;11.57;;;;;;;8.81;82.60;95872.47;5072786;28;20534;-81
2022/12/28 04:12:55;;;;;;;14.80;11.93;;;;;;;8.81;82.49;95864.63;5072673;28;20505;-81
2022/12/28 04:15:22;;;;;;;23.50;13.03;;;;;;;8.78;82.89;95856.97;5072805;28;20451;-81
2022/12/28 04:17:49;;;;;;;15.57;12.10;;;;;;;8.77;83.41;95865.75;5072810;28;20447;-81
2022/12/28 04:20:16;;;;;;;12.67;10.47;;;;;;;8.78;83.41;95873.50;5072665;28;20935;-81
2022/12/28 04:22:42;;;;;;;15.83;11.50;;;;;;;8.76;84.11;95869.31;5072538;28;20441;-81
2022/12/28 04:25:11;;;;;;;14.07;10.93;;;;;;;8.68;84.65;95868.00;5072393;28;20471;-81
2022/12/28 04:27:37;;;;;;;13.63;11.07;;;;;;;8.64;84.54;95865.66;5072930;28;20934;-81
2022/12/28 04:30:05;;;;;;;14.27;10.13;;;;;;;8.63;84.11;95867.44;5072397;28;20542;-81
2022/12/28 04:32:32;;;;;;;14.70;10.40;;;;;;;8.63;84.86;95877.88;5072369;28;20441;-81
2022/12/28 04:34:58;;;;;;;15.90;10.73;;;;;;;8.66;84.44;95882.94;5072540;28;20448;-81
2022/12/28 04:37:26;;;;;;;18.83;10.90;;;;;;;8.65;84.83;95885.63;5072288;28;20457;-80
2022/12/28 04:39:53;;;;;;;13.80;11.23;;;;;;;8.65;85.67;95889.09;5072785;28;20501;-81
2022/12/28 04:42:21;;;;;;;23.27;12.30;;;;;;;8.64;85.15;95895.25;5072501;28;20441;-81
2022/12/28 04:44:48;;;;;;;14.83;12.40;;;;;;;8.62;85.35;95912.00;5072985;28;20586;-81
2022/12/28 04:47:14;;;;;;;16.03;13.33;;;;;;;8.62;85.91;95912.84;5072289;28;20926;-81
2022/12/28 04:49:41;;;;;;;15.43;12.63;;;;;;;8.58;85.77;95913.97;5072285;28;20492;-80
2022/12/28 04:52:08;;;;;;;16.00;12.07;;;;;;;8.46;85.82;95904.25;5072307;28;20516;-81
2022/12/28 04:54:34;;;;;;;14.27;11.10;;;;;;;8.50;85.37;95904.91;5072286;28;20452;-81
2022/12/28 04:57:01;;;;;;;13.90;10.87;;;;;;;8.49;85.14;95909.28;5072397;28;20502;-81
2022/12/28 04:59:32;;;;;;;14.40;11.00;;;;;;;8.46;85.23;95916.47;5072417;28;20867;-81
2022/12/28 05:01:59;;;;;;;15.27;11.70;;;;;;;8.46;85.25;95922.56;5076323;28;20444;-81
2022/12/28 05:04:26;;;;;;;16.47;11.67;;;;;;;8.38;85.84;95919.53;5076283;28;20490;-81
2022/12/28 05:06:52;;;;;;;21.13;14.30;;;;;;;8.14;86.55;95920.97;5057476;28;20428;-81
2022/12/28 05:09:19;;;;;;;21.40;13.40;;;;;;;7.60;89.75;95921.44;5076350;28;20896;-81
2022/12/28 05:11:46;;;;;;;13.90;11.10;;;;;;;7.62;90.34;95919.59;5076119;28;20490;-81
2022/12/28 05:14:13;;;;;;;14.27;11.40;;;;;;;7.66;89.47;95920.25;5076179;28;20494;-81
2022/12/28 05:16:41;;;;;;;18.40;11.97;;;;;;;7.51;90.10;95911.50;5076046;28;20988;-81
2022/12/28 05:19:08;;;;;;;17.50;13.03;;;;;;;7.58;90.22;95914.63;5057180;28;20428;-81
2022/12/28 05:21:34;;;;;;;23.30;14.60;;;;;;;7.64;90.15;95911.66;5076216;28;20849;-81
2022/12/28 05:24:01;;;;;;;24.63;15.90;;;;;;;7.73;89.46;95913.75;5075945;28;20444;-81
2022/12/28 05:26:29;;;;;;;22.03;14.63;;;;;;;7.86;88.34;95916.50;5076165;28;20510;-81
2022/12/28 05:28:57;;;;;;;27.27;13.93;;;;;;;7.94;88.20;95909.91;5075726;28;20448;-81
2022/12/28 05:31:24;;;;;;;24.60;15.70;;;;;;;8.06;87.29;95917.03;5075665;28;20812;-81
2022/12/28 05:33:52;;;;;;;22.53;15.37;;;;;;;8.11;86.78;95914.16;5075767;28;20451;-82
2022/12/28 05:36:21;;;;;;;21.70;16.30;;;;;;;8.01;87.11;95911.22;5075902;28;20850;-81
2022/12/28 05:38:48;;;;;;;25.43;15.63;;;;;;;7.93;87.61;95915.22;5075797;28;20859;-81
2022/12/28 05:41:16;;;;;;;26.33;15.67;;;;;;;8.08;87.28;95916.94;5075551;28;20442;-81
2022/12/28 05:43:44;;;;;;;21.20;13.63;;;;;;;8.16;87.32;95924.34;5075225;28;20469;-81
2022/12/28 05:46:12;;;;;;;19.90;13.90;;;;;;;8.21;86.99;95932.75;5075430;28;20441;-81
2022/12/28 05:48:41;;;;;;;19.93;15.00;;;;;;;8.26;86.90;95933.31;5075416;28;20448;-81
2022/12/28 05:51:10;;;;;;;26.40;15.67;;;;;;;8.08;86.79;95937.84;5075376;28;20492;-81
2022/12/28 05:53:37;;;;;;;27.53;16.77;;;;;;;7.96;87.30;95938.56;5040265;28;20507;-81
2022/12/28 05:56:05;;;;;;;23.80;17.83;;;;;;;7.96;87.29;95934.19;5075435;28;20445;-82
2022/12/28 05:58:33;;;;;;;30.33;17.17;;;;;;;7.97;87.54;95938.47;5075226;28;20488;-81
2022/12/28 06:01:08;;;;;;;29.83;19.20;;;;;;;7.93;87.37;95944.81;5075118;28;20865;-81
2022/12/28 06:03:35;;;;;;;31.70;21.33;;;;;;;7.93;87.35;95949.19;5075670;28;20488;-82
2022/12/28 06:06:11;;;;;;;27.60;21.00;;;;;;;7.91;87.92;95948.44;5075341;28;20444;-81
2022/12/28 06:08:39;;;;;;;34.00;21.73;;;;;;;7.77;87.98;95949.22;5075175;28;20510;-81
2022/12/28 06:11:07;;;;;;;35.57;21.83;;;;;;;7.83;87.98;95951.50;5075063;28;20549;-82
2022/12/28 06:13:34;;;;;;;29.07;20.30;;;;;;;7.75;87.95;95951.06;5075176;28;20449;-82
2022/12/28 06:16:06;;;;;;;27.97;18.73;;;;;;;7.74;88.71;95950.22;5075223;28;20995;-81
2022/12/28 06:18:36;;;;;;;28.20;19.53;;;;;;;7.80;88.90;95946.44;5075008;28;20487;-81
2022/12/28 06:21:04;;;;;;;21.00;16.90;;;;;;;7.89;88.53;95959.00;5074882;28;20452;-81
2022/12/28 06:23:33;;;;;;;21.93;16.73;;;;;;;7.96;88.38;95956.84;5075183;28;20451;-82
2022/12/28 06:26:00;;;;;;;29.80;17.80;;;;;;;7.98;88.04;95955.84;5075037;28;20447;-82
2022/12/28 06:28:27;;;;;;;30.90;15.57;;;;;;;8.02;88.08;95959.94;5074619;28;20447;-81
2022/12/28 06:31:04;;;;;;;23.20;17.10;;;;;;;8.04;87.52;95957.25;5074635;28;20541;-81
2022/12/28 06:33:30;;;;;;;26.53;18.07;;;;;;;8.03;87.38;95953.78;5074553;28;20996;-82
2022/12/28 06:35:57;;;;;;;31.43;17.70;;;;;;;8.06;88.10;95952.78;5074646;28;20451;-81
2022/12/28 06:38:25;;;;;;;30.77;18.60;;;;;;;8.08;87.68;95954.38;5074510;28;20925;-82
2022/12/28 06:40:53;;;;;;;22.73;16.30;;;;;;;8.05;88.19;95946.69;5074625;28;20449;-82
2022/12/28 06:43:20;;;;;;;19.67;14.53;;;;;;;8.11;88.27;95952.53;5074270;28;20475;-81
2022/12/28 06:45:55;;;;;;;23.50;16.67;;;;;;;8.14;88.29;95958.41;5074355;28;20981;-81
2022/12/28 06:48:22;;;;;;;28.57;17.90;;;;;;;8.16;88.83;95966.19;5074306;28;20448;-81
2022/12/28 06:50:55;;;;;;;20.83;15.80;;;;;;;8.22;88.71;95965.81;5074725;28;20816;-81
2022/12/28 06:53:21;;;;;;;18.33;15.67;;;;;;;8.27;88.36;95972.44;5074551;28;20538;-82
2022/12/28 06:55:54;;;;;;;24.07;16.10;;;;;;;8.32;88.04;95973.03;5074185;28;20445;-82
2022/12/28 06:58:21;;;;;;;24.97;15.30;;;;;;;8.34;87.69;95986.88;5074083;28;20436;-81
2022/12/28 07:00:48;;;;;;;20.70;14.90;;;;;;;8.34;87.10;95979.03;5038827;28;20456;-82
2022/12/28 07:03:15;;;;;;;22.33;14.97;;;;;;;8.32;87.08;95977.41;5073943;28;20441;-81
2022/12/28 07:05:42;;;;;;;20.17;14.77;;;;;;;8.27;87.51;95966.38;5074025;28;20450;-81
2022/12/28 07:08:09;;;;;;;18.53;14.10;;;;;;;8.19;87.76;95974.69;5038753;28;20449;-82
2022/12/28 07:10:36;;;;;;;26.30;14.63;;;;;;;8.25;87.77;95976.94;5073889;28;20477;-81
2022/12/28 07:13:04;;;;;;;22.27;14.40;;;;;;;8.29;87.95;95977.59;5073896;28;20528;-81
2022/12/28 07:15:31;;;;;;;33.60;20.50;;;;;;;8.25;88.17;95965.63;5073586;28;20460;-81
2022/12/28 07:17:58;;;;;;;37.50;23.67;;;;;;;8.26;87.77;95967.31;5073963;28;20448;-81
2022/12/28 07:20:25;;;;;;;42.00;26.90;;;;;;;8.21;88.49;95964.13;5073744;28;20452;-81
2022/12/28 07:22:53;;;;;;;36.50;21.40;;;;;;;8.18;88.96;95961.69;5073299;28;20448;-81
2022/12/28 07:25:19;;;;;;;25.77;19.33;;;;;;;8.19;90.12;95960.75;5073091;28;20436;-81
2022/12/28 07:27:46;;;;;;;19.83;14.27;;;;;;;8.28;90.08;95966.28;5073741;28;20448;-81
2022/12/28 07:30:15;;;;;;;20.40;12.97;;;;;;;8.36;90.06;95960.63;5073458;28;20539;-81
2022/12/28 07:32:42;;;;;;;17.57;12.77;;;;;;;8.47;89.16;95968.69;5073433;28;20468;-81
2022/12/28 07:35:09;;;;;;;22.57;13.23;;;;;;;8.55;88.40;95970.84;5073468;28;20452;-81
2022/12/28 07:37:36;;;;;;;19.10;13.90;;;;;;;8.65;87.49;95975.44;5073488;28;20445;-81
2022/12/28 07:40:03;;;;;;;20.50;15.43;;;;;;;8.76;87.36;95964.34;5073410;28;20506;-82
2022/12/28 07:42:31;;;;;;;21.83;14.20;;;;;;;8.85;86.35;95973.41;5072981;28;20437;-81
2022/12/28 07:44:57;;;;;;;19.93;13.83;;;;;;;8.93;85.32;95974.63;5073187;28;20441;-81
2022/12/28 07:47:26;;;;;;;25.17;14.13;;;;;;;9.02;84.43;95983.72;5073325;28;20518;-81
2022/12/28 07:49:52;;;;;;;23.20;15.43;;;;;;;9.12;84.14;95984.81;5073382;28;20484;-82
2022/12/28 07:52:19;;;;;;;27.83;16.00;;;;;;;9.19;83.16;95982.66;5072913;28;20931;-81
2022/12/28 07:54:46;;;;;;;23.37;16.13;;;;;;;9.27;83.72;95983.88;5073076;28;20449;-81
2022/12/28 07:57:12;;;;;;;26.83;16.70;;;;;;;9.35;82.15;95980.78;5072948;28;20737;-81
2022/12/28 07:59:39;;;;;;;33.23;17.90;;;;;;;9.45;81.07;95986.28;5073212;28;20446;-81
2022/12/28 08:02:06;;;;;;;23.77;14.47;;;;;;;9.55;79.89;95987.41;5073183;28;20453;-81
2022/12/28 08:04:34;;;;;;;18.93;10.80;;;;;;;9.61;79.14;95987.00;5072999;28;20450;-81
2022/12/28 08:07:01;;;;;;;16.40;10.97;;;;;;;9.63;77.96;95990.38;5073272;28;20495;-81
2022/12/28 08:09:28;;;;;;;17.00;10.70;;;;;;;9.72;77.02;95981.91;5072993;28;20445;-81
2022/12/28 08:11:55;;;;;;;20.57;10.70;;;;;;;9.73;76.42;95986.22;5073130;28;20481;-82
2022/12/28 08:14:24;;;;;;;20.73;10.57;;;;;;;9.77;75.67;95982.44;5072677;28;20781;-82
2022/12/28 08:16:51;;;;;;;26.60;16.33;;;;;;;9.81;76.06;95972.59;5072677;28;20932;-82
2022/12/28 08:19:18;;;;;;;25.03;15.50;;;;;;;9.82;75.87;95979.53;5072572;28;20439;-81
2022/12/28 08:21:46;;;;;;;20.90;13.07;;;;;;;9.84;75.36;95981.13;5072864;28;20501;-81
2022/12/28 08:24:14;;;;;;;16.57;12.20;;;;;;;9.88;75.36;95982.63;5037214;28;20450;-81
2022/12/28 08:26:42;;;;;;;23.63;12.57;;;;;;;9.90;75.43;95983.34;5072442;28;20461;-81
2022/12/28 08:29:11;;;;;;;17.90;10.63;;;;;;;9.85;74.94;95990.69;5072818;28;20454;-81
2022/12/28 08:31:39;;;;;;;22.10;15.80;;;;;;;9.81;74.55;95985.72;5072657;28;20534;-81
2022/12/28 08:34:09;;;;;;;22.83;14.90;;;;;;;9.76;75.53;95991.25;5072323;28;20539;-81
2022/12/28 08:36:36;;;;;;;27.80;15.47;;;;;;;9.71;74.92;95989.88;5072351;28;20442;-81
2022/12/28 08:39:05;;;;;;;16.73;13.30;;;;;;;9.56;74.50;95989.06;5072668;28;20857;-81
2022/12/28 08:41:32;;;;;;;17.63;12.27;;;;;;;9.39;74.91;95984.88;5072789;28;20498;-81
2022/12/28 08:43:59;;;;;;;28.23;12.30;;;;;;;9.30;75.90;95993.31;5072340;28;20808;-81
2022/12/28 08:46:28;;;;;;;15.47;12.30;;;;;;;9.27;77.13;95983.88;5072350;28;20440;-82
2022/12/28 08:48:57;;;;;;;17.43;13.10;;;;;;;9.21;76.72;95984.25;5072562;28;20441;-81
2022/12/28 08:51:25;;;;;;;11.80;9.53;;;;;;;9.17;77.30;95987.97;5072134;28;20486;-81
2022/12/28 08:53:53;;;;;;;14.30;10.37;;;;;;;9.23;77.23;95986.75;5072194;28;20459;-81
2022/12/28 08:56:23;;;;;;;17.13;11.33;;;;;;;9.20;77.40;95986.94;5072098;28;20455;-81
2022/12/28 08:58:51;;;;;;;15.33;11.47;;;;;;;9.24;78.42;95985.81;5072326;28;20482;-81
2022/12/28 09:01:21;;;;;;;14.80;11.80;;;;;;;9.25;79.63;95979.66;5072366;28;20444;-81
2022/12/28 09:03:50;;;;;;;17.90;11.93;;;;;;;9.22;78.85;95982.47;5072205;28;20449;-81
2022/12/28 09:06:19;;;;;;;17.00;11.83;;;;;;;9.22;80.08;95964.97;5072078;28;20453;-81
2022/12/28 09:08:49;;;;;;;19.50;12.27;;;;;;;9.23;80.16;95969.28;5072289;28;20449;-81
2022/12/28 09:11:16;;;;;;;17.60;13.27;;;;;;;9.07;79.74;95965.09;5071907;28;20886;-81
2022/12/28 09:13:45;;;;;;;21.27;12.67;;;;;;;8.99;80.39;95962.97;5072366;28;20947;-81
2022/12/28 09:16:13;;;;;;;24.80;14.40;;;;;;;8.94;79.81;95957.97;5072213;28;20460;-81
2022/12/28 09:18:42;;;;;;;30.13;17.80;;;;;;;8.88;79.93;95955.75;5071982;28;20445;-81
2022/12/28 09:21:12;;;;;;;26.43;16.90;;;;;;;8.84;80.18;95958.63;5072390;28;20498;-81
2022/12/28 09:23:39;;;;;;;26.70;16.57;;;;;;;8.83;80.89;95947.34;5072210;28;20444;-81
2022/12/28 09:26:07;;;;;;;36.20;19.13;;;;;;;8.85;80.73;95935.00;5071931;28;20494;-81
2022/12/28 09:28:34;;;;;;;40.13;18.40;;;;;;;8.91;81.46;95942.47;5004514;28;20448;-81
2022/12/28 09:31:04;;;;;;;31.97;17.90;;;;;;;9.03;81.47;95947.91;5072012;28;20485;-81
2022/12/28 09:36:15;;;;;;;21.27;12.40;;;;;;;9.05;80.40;95941.63;5075690;28;20909;-81
2022/12/28 09:38:42;;;;;;;19.47;11.70;;;;;;;9.13;80.07;95936.75;5072118;28;20476;-81
2022/12/28 09:41:12;;;;;;;19.13;13.83;;;;;;;9.20;79.66;95929.34;5072005;28;21031;-82
2022/12/28 09:43:41;;;;;;;26.73;16.20;;;;;;;9.22;79.50;95928.31;5072047;28;20560;-80
2022/12/28 09:46:11;;;;;;;24.07;15.63;;;;;;;9.17;79.41;95934.78;5072349;28;20523;-81
2022/12/28 09:48:40;;;;;;;24.33;15.03;;;;;;;9.15;79.09;95939.28;5039986;28;20444;-81
2022/12/28 09:51:08;;;;;;;15.90;12.40;;;;;;;9.08;78.09;95923.09;5075617;28;20488;-82
2022/12/28 09:53:36;;;;;;;17.00;13.80;;;;;;;9.15;79.01;95926.19;5075584;28;20441;-81
2022/12/28 09:56:05;;;;;;;15.83;12.03;;;;;;;9.10;76.92;95918.63;5075282;28;20455;-82
2022/12/28 09:58:36;;;;;;;19.53;13.07;;;;;;;9.17;76.97;95922.53;5039569;28;20838;-82
2022/12/28 10:01:04;;;;;;;23.53;13.97;;;;;;;9.30;77.05;95912.97;5042089;28;20447;-82
2022/12/28 10:03:38;;;;;;;19.33;14.37;;;;;;;9.47;75.80;95917.13;5076261;28;20984;-82
2022/12/28 10:06:11;;;;;;;18.70;14.63;;;;;;;9.50;75.05;95909.06;5076294;28;20440;-82
2022/12/28 10:08:42;;;;;;;22.20;14.73;;;;;;;9.58;74.27;95905.97;5076208;28;21175;-81
2022/12/28 10:11:11;;;;;;;19.50;13.23;;;;;;;9.66;74.40;95900.22;5076562;28;20488;-82
2022/12/28 10:13:39;;;;;;;18.33;13.80;;;;;;;9.69;73.83;95911.34;5075850;28;20993;-81
2022/12/28 10:16:11;;;;;;;18.60;13.67;;;;;;;9.76;73.29;95912.63;5075527;28;20446;-81
2022/12/28 10:18:39;;;;;;;27.57;14.77;;;;;;;9.84;74.12;95902.50;5075172;28;20939;-82
2022/12/28 10:21:06;;;;;;;23.90;13.90;;;;;;;9.85;72.88;95906.78;5075194;28;20457;-81
2022/12/28 10:23:36;;;;;;;25.93;12.50;;;;;;;9.90;72.02;95909.09;5075095;28;20454;-81
2022/12/28 10:26:05;;;;;;;18.87;12.90;;;;;;;9.83;72.58;95898.19;5075585;28;20902;-82
2022/12/28 10:28:41;;;;;;;16.77;13.90;;;;;;;9.80;72.05;95903.59;5075238;28;20490;-81
2022/12/28 10:31:10;;;;;;;14.80;12.10;;;;;;;9.60;71.95;95901.47;5075427;28;20489;-82
2022/12/28 10:33:40;;;;;;;15.03;12.60;;;;;;;9.63;72.98;95906.50;5075170;28;20503;-82
2022/12/28 10:36:12;;;;;;;21.80;14.93;;;;;;;9.69;73.05;95900.84;5075002;28;20441;-82
2022/12/28 10:38:43;;;;;;;18.17;13.93;;;;;;;9.78;73.77;95897.63;5075066;28;20453;-82
2022/12/28 10:41:13;;;;;;;21.50;15.50;;;;;;;9.79;72.60;95901.09;5040891;28;20441;-82
2022/12/28 10:43:41;;;;;;;18.87;14.67;;;;;;;9.84;74.03;95896.41;5076159;28;20484;-81
2022/12/28 10:46:16;;;;;;;21.23;15.40;;;;;;;9.71;75.06;95898.97;5074558;28;20450;-82
2022/12/28 10:48:47;;;;;;;24.13;14.37;;;;;;;9.77;75.23;95895.94;5074735;28;20501;-82
2022/12/28 10:51:16;;;;;;;23.43;16.50;;;;;;;9.86;74.38;95895.38;5074781;28;20477;-81
2022/12/28 10:53:46;;;;;;;20.67;13.93;;;;;;;9.89;74.38;95889.91;5074919;28;20458;-81
2022/12/28 10:56:24;;;;;;;25.83;16.37;;;;;;;9.94;74.40;95887.81;5074571;28;20508;-81
2022/12/28 10:58:53;;;;;;;22.50;15.83;;;;;;;9.68;75.70;95880.00;5074266;28;20449;-81
2022/12/28 11:01:26;;;;;;;22.83;16.47;;;;;;;9.45;77.16;95878.88;5074427;28;20510;-81
2022/12/28 11:04:05;;;;;;;27.80;16.27;;;;;;;9.35;77.85;95878.63;5074259;28;20533;-81
2022/12/28 11:06:34;;;;;;;23.67;16.73;;;;;;;9.12;78.50;95877.47;5073909;28;20449;-81
2022/12/28 11:09:06;;;;;;;23.00;17.53;;;;;;;9.20;79.03;95879.59;5074208;28;20924;-81
2022/12/28 11:11:36;;;;;;;23.80;17.73;;;;;;;8.99;78.57;95882.66;5074296;28;20555;-81
2022/12/28 11:14:06;;;;;;;26.03;16.37;;;;;;;9.06;78.86;95883.09;5074237;28;20514;-81
2022/12/28 11:16:36;;;;;;;33.70;21.53;;;;;;;9.10;78.81;95875.88;5055451;28;20470;-81
2022/12/28 11:19:05;;;;;;;28.00;18.40;;;;;;;9.20;77.52;95888.28;5073962;28;20445;-81
2022/12/28 11:21:34;;;;;;;32.23;20.50;;;;;;;9.28;77.60;95891.28;5074341;28;20449;-81
2022/12/28 11:24:01;;;;;;;30.90;16.40;;;;;;;9.22;78.26;95890.81;5073894;28;20540;-81
2022/12/28 11:26:30;;;;;;;33.20;21.53;;;;;;;9.26;78.07;95889.69;5038805;28;20441;-81
2022/12/28 11:28:57;;;;;;;28.13;18.30;;;;;;;9.23;78.18;95897.72;5040008;28;20454;-81
2022/12/28 11:31:31;;;;;;;25.50;18.37;;;;;;;9.35;78.67;95896.13;5074031;28;20481;-80
2022/12/28 11:34:03;;;;;;;23.50;16.03;;;;;;;9.33;78.21;95904.06;5074823;28;20855;-81
2022/12/28 11:36:33;;;;;;;23.70;16.43;;;;;;;9.39;78.07;95902.84;5074082;28;20526;-82
2022/12/28 11:39:30;;;;;;;23.40;16.20;;;;;;;9.35;77.48;95901.34;5074008;28;20450;-81
2022/12/28 11:41:58;;;;;;;23.70;17.07;;;;;;;9.29;78.25;95897.34;5073538;28;20436;-81
2022/12/28 11:44:49;;;;;;;27.20;18.10;;;;;;;9.32;78.75;95903.25;5074719;28;20578;-81
2022/12/28 11:47:31;;;;;;;24.80;18.03;;;;;;;9.30;77.78;95897.25;5073346;28;20966;-81
2022/12/28 11:50:32;;;;;;;25.37;16.70;;;;;;;9.10;78.03;95897.66;5073801;28;20447;-80
2022/12/28 11:53:01;;;;;;;23.63;16.03;;;;;;;9.12;78.88;95893.16;5073154;28;20940;-81
2022/12/28 11:55:44;;;;;;;31.33;19.10;;;;;;;9.23;78.36;95898.56;5073873;28;20444;-81
2022/12/28 11:58:52;;;;;;;38.37;19.80;;;;;;;9.18;78.61;95892.78;5073478;28;20944;-81
2022/12/28 12:01:41;;;;;;;26.67;19.13;;;;;;;9.14;78.43;95888.69;5011450;28;20539;-81
2022/12/28 12:04:40;;;;;;;27.30;19.03;;;;;;;9.09;78.99;95885.50;5011388;28;20439;-81
2022/12/28 12:07:25;;;;;;;27.27;18.37;;;;;;;9.25;78.61;95882.75;5011820;28;20444;-81
2022/12/28 12:10:15;;;;;;;23.47;16.43;;;;;;;9.18;78.50;95868.38;4978564;28;20440;-81